Time;durP1;ratioP1;P1;durP2;ratioP2;P2;SDS_P1;SDS_P2;PMS_P1;PMS_P2;Temp;Humidity;BMP_temperature;BMP_pressure;BME280_temperature;BME280_humidity;BME280_pressure;Samples;Min_cycle;Max_cycle;Signal;HPM_P1;HPM_P2
2022/07/16 00:01:26;;;;;;;2.80;2.10;;;;;;;15.78;91.54;101975.53;5022384;28;20030;-86
2022/07/16 00:03:57;;;;;;;3.20;1.95;;;;;;;15.78;91.89;101967.53;5023371;28;20128;-88
2022/07/16 00:06:24;;;;;;;3.00;2.25;;;;;;;15.78;92.05;101965.72;5023751;28;20029;-86
2022/07/16 00:08:50;;;;;;;3.00;2.13;;;;;;;15.79;92.15;101970.13;5022444;28;20021;-86
2022/07/16 00:11:19;;;;;;;3.60;1.83;;;;;;;15.81;91.84;101967.38;5021956;28;20681;-82
2022/07/16 00:13:45;;;;;;;5.90;2.25;;;;;;;15.82;91.82;101961.09;5019431;28;20042;-84
2022/07/16 00:16:13;;;;;;;3.75;2.20;;;;;;;15.83;92.14;101974.38;5023045;28;20322;-84
2022/07/16 00:21:23;;;;;;;4.38;2.00;;;;;;;15.86;92.62;101968.88;5024381;28;20049;-86
2022/07/16 00:23:49;;;;;;;2.50;2.30;;;;;;;15.89;92.84;101968.75;5025068;28;20386;-87
2022/07/16 00:26:15;;;;;;;4.03;2.40;;;;;;;15.92;93.45;101966.88;5023332;28;20064;-84
2022/07/16 00:28:40;;;;;;;3.35;2.22;;;;;;;15.97;93.87;101975.53;5024302;28;20028;-85
2022/07/16 00:31:06;;;;;;;2.50;2.30;;;;;;;15.98;93.58;101966.56;5023903;28;20029;-87
2022/07/16 00:33:31;;;;;;;5.70;2.97;;;;;;;15.97;93.82;101976.38;5025379;28;20030;-81
2022/07/16 00:35:57;;;;;;;3.30;2.28;;;;;;;15.98;93.47;101990.59;4991095;28;20061;-84
2022/07/16 00:38:23;;;;;;;2.60;2.00;;;;;;;15.94;94.00;101997.03;5022467;28;20045;-84
2022/07/16 00:40:48;;;;;;;3.78;1.40;;;;;;;15.87;94.71;101991.97;5021588;28;20099;-80
2022/07/16 00:43:14;;;;;;;1.30;1.20;;;;;;;15.75;95.38;101995.25;5018787;28;20033;-86
2022/07/16 00:45:43;;;;;;;1.10;1.08;;;;;;;15.64;96.40;101994.91;5004659;28;20092;-81
2022/07/16 00:48:09;;;;;;;1.00;1.00;;;;;;;15.48;96.18;101996.50;4985261;28;20059;-85
2022/07/16 00:50:36;;;;;;;1.13;1.00;;;;;;;15.37;95.98;101997.97;4988794;28;20041;-87
2022/07/16 00:53:04;;;;;;;2.67;0.90;;;;;;;15.28;96.66;102000.13;5008589;28;20037;-86
2022/07/16 00:55:30;;;;;;;2.03;1.15;;;;;;;15.23;97.72;102002.16;5034829;28;20113;-86
2022/07/16 00:57:57;;;;;;;2.15;1.08;;;;;;;15.15;97.61;102002.50;5020327;28;20072;-87
2022/07/16 01:00:22;;;;;;;3.50;1.33;;;;;;;15.09;98.31;102001.94;5016739;28;20438;-82
2022/07/16 01:02:48;;;;;;;4.55;1.10;;;;;;;15.05;98.67;102011.88;5021834;28;20095;-83
2022/07/16 01:05:14;;;;;;;2.00;1.10;;;;;;;15.02;99.69;102010.22;5023173;28;20043;-83
2022/07/16 01:07:41;;;;;;;3.63;1.35;;;;;;;15.01;100.00;102011.16;5023968;28;20508;-85
2022/07/16 01:10:06;;;;;;;1.48;1.05;;;;;;;15.02;100.00;102006.66;5021856;28;20029;-84
2022/07/16 01:12:32;;;;;;;1.50;0.95;;;;;;;15.01;100.00;102003.16;5021762;28;20047;-85
2022/07/16 01:14:57;;;;;;;4.10;1.15;;;;;;;15.02;100.00;102012.88;5005126;28;20048;-85
2022/07/16 01:17:24;;;;;;;2.67;1.10;;;;;;;15.03;100.00;102005.75;5023172;28;20039;-86
2022/07/16 01:19:50;;;;;;;1.58;1.05;;;;;;;15.04;100.00;102007.47;5005187;28;20487;-86
2022/07/16 01:22:23;;;;;;;1.58;1.00;;;;;;;15.04;100.00;102015.47;5007084;28;20038;-85
2022/07/16 01:24:49;;;;;;;1.73;0.90;;;;;;;15.05;100.00;102001.22;5021113;28;20128;-82
2022/07/16 01:27:16;;;;;;;1.25;0.90;;;;;;;15.06;100.00;102010.94;5021846;28;20128;-86
2022/07/16 01:29:42;;;;;;;1.08;0.90;;;;;;;15.06;100.00;102005.59;5023914;28;20192;-85
2022/07/16 01:32:07;;;;;;;2.58;0.90;;;;;;;15.06;100.00;102009.16;5023131;28;20037;-84
2022/07/16 01:34:33;;;;;;;1.88;0.82;;;;;;;15.04;100.00;102019.00;5023366;28;20033;-84
2022/07/16 01:37:07;;;;;;;1.23;0.80;;;;;;;15.05;100.00;102017.22;5017684;28;20044;-80
2022/07/16 01:39:35;;;;;;;1.90;1.00;;;;;;;15.04;100.00;102013.66;5006612;28;20038;-85
2022/07/16 01:42:03;;;;;;;3.65;0.90;;;;;;;15.03;100.00;102022.59;5018413;28;20033;-85
2022/07/16 01:44:30;;;;;;;1.80;0.80;;;;;;;15.03;100.00;102022.59;5022215;28;20041;-86
2022/07/16 01:46:57;;;;;;;0.82;0.82;;;;;;;15.03;100.00;102016.44;4985644;28;20721;-84
2022/07/16 01:49:23;;;;;;;2.30;0.98;;;;;;;15.04;100.00;102023.47;5002189;28;20496;-82
2022/07/16 01:51:49;;;;;;;0.93;0.82;;;;;;;15.03;100.00;102027.09;5007627;28;20037;-83
2022/07/16 01:54:15;;;;;;;1.15;0.90;;;;;;;15.02;100.00;102030.66;5022154;28;20087;-86
2022/07/16 01:56:41;;;;;;;1.65;1.02;;;;;;;15.01;100.00;102028.94;5005033;28;20028;-85
2022/07/16 01:59:07;;;;;;;1.23;1.00;;;;;;;15.00;100.00;102038.75;5015759;28;20439;-87
2022/07/16 02:01:32;;;;;;;1.45;1.00;;;;;;;14.98;100.00;102035.28;5019797;28;20391;-82
2022/07/16 02:03:58;;;;;;;1.33;0.90;;;;;;;14.99;100.00;102036.16;5022624;28;20404;-86
2022/07/16 02:06:24;;;;;;;1.20;0.80;;;;;;;14.96;100.00;102042.47;5006335;28;20435;-85
2022/07/16 02:08:50;;;;;;;1.05;0.90;;;;;;;14.92;100.00;102048.88;5021397;28;20029;-83
2022/07/16 02:11:15;;;;;;;2.55;1.02;;;;;;;14.91;100.00;102049.81;5023408;28;20048;-86
2022/07/16 02:13:42;;;;;;;3.15;0.80;;;;;;;14.86;100.00;102050.03;5015558;28;20061;-84
2022/07/16 02:16:08;;;;;;;2.78;0.90;;;;;;;14.83;100.00;102055.50;5020276;28;20040;-85
2022/07/16 02:18:35;;;;;;;1.50;1.13;;;;;;;14.80;100.00;102048.50;5023735;28;20534;-87
2022/07/16 02:21:00;;;;;;;3.00;1.10;;;;;;;14.77;100.00;102053.97;5019663;28;20058;-87
2022/07/16 02:23:26;;;;;;;1.25;0.88;;;;;;;14.74;100.00;102056.78;5019202;28;20517;-86
2022/07/16 02:25:52;;;;;;;1.35;0.95;;;;;;;14.73;100.00;102051.47;5019669;28;20060;-85
2022/07/16 02:28:17;;;;;;;2.53;1.20;;;;;;;14.72;100.00;102055.06;5019621;28;20049;-84
2022/07/16 02:30:47;;;;;;;2.40;1.13;;;;;;;14.71;100.00;102059.53;5020925;28;20308;-83
2022/07/16 02:33:15;;;;;;;2.20;1.02;;;;;;;14.70;100.00;102057.81;5015912;28;20021;-87
2022/07/16 02:35:41;;;;;;;1.77;1.10;;;;;;;14.68;100.00;102057.00;5018437;28;20029;-84
2022/07/16 02:38:07;;;;;;;1.65;1.25;;;;;;;14.66;99.84;102056.22;5027949;28;20506;-83
2022/07/16 02:40:34;;;;;;;1.17;0.90;;;;;;;14.63;99.66;102057.22;5024839;28;20562;-82
2022/07/16 02:43:01;;;;;;;1.95;1.00;;;;;;;14.60;99.55;102056.47;5024557;28;20391;-87
2022/07/16 02:45:27;;;;;;;2.55;1.23;;;;;;;14.59;99.84;102060.09;5025728;28;20630;-87
2022/07/16 02:47:52;;;;;;;2.65;1.13;;;;;;;14.57;99.84;102054.81;5026242;28;20160;-83
2022/07/16 02:50:18;;;;;;;3.13;1.30;;;;;;;14.54;100.00;102046.94;5026061;28;20602;-82
2022/07/16 02:52:44;;;;;;;1.73;1.15;;;;;;;14.51;99.50;102061.25;5028818;28;20129;-84
2022/07/16 02:55:09;;;;;;;2.25;1.20;;;;;;;14.48;99.81;102064.06;5026622;28;20036;-83
2022/07/16 02:57:35;;;;;;;2.92;1.27;;;;;;;14.45;99.73;102061.53;5003995;28;20388;-83
2022/07/16 03:00:00;;;;;;;2.10;1.27;;;;;;;14.42;99.58;102056.31;5026713;28;20518;-82
2022/07/16 03:02:26;;;;;;;1.98;1.17;;;;;;;14.37;99.80;102061.84;5020606;28;20455;-84
2022/07/16 03:04:52;;;;;;;4.28;1.38;;;;;;;14.33;99.98;102067.38;5025395;28;20476;-84
2022/07/16 03:07:17;;;;;;;2.70;1.55;;;;;;;14.28;100.00;102072.91;5020000;28;20033;-84
2022/07/16 03:09:43;;;;;;;1.60;0.98;;;;;;;14.25;100.00;102073.03;5025267;28;20068;-82
2022/07/16 03:12:09;;;;;;;2.92;1.10;;;;;;;14.21;100.00;102080.28;5023100;28;20384;-85
2022/07/16 03:14:34;;;;;;;1.83;1.45;;;;;;;14.17;99.99;102078.66;5019430;28;20039;-84
2022/07/16 03:17:00;;;;;;;3.00;1.35;;;;;;;14.12;100.00;102078.84;5024448;28;20033;-83
2022/07/16 03:19:25;;;;;;;3.17;1.17;;;;;;;14.10;100.00;102086.03;5025249;28;20029;-83
2022/07/16 03:21:51;;;;;;;2.88;1.50;;;;;;;14.07;100.00;102087.97;5023543;28;20409;-85
2022/07/16 03:24:16;;;;;;;2.15;1.20;;;;;;;14.05;100.00;102092.50;5022010;28;20037;-84
2022/07/16 03:26:42;;;;;;;4.30;1.38;;;;;;;14.02;100.00;102093.47;5023547;28;20654;-85
2022/07/16 03:29:07;;;;;;;1.67;1.30;;;;;;;13.97;100.00;102100.78;5020397;28;20802;-82
2022/07/16 03:31:33;;;;;;;2.35;1.20;;;;;;;13.94;99.99;102099.09;5032402;28;20046;-82
2022/07/16 03:33:58;;;;;;;1.75;1.27;;;;;;;13.91;100.00;102107.22;5024972;28;20033;-84
2022/07/16 03:36:26;;;;;;;3.75;1.33;;;;;;;13.87;100.00;102102.94;5022980;28;20299;-84
2022/07/16 03:39:04;;;;;;;1.92;1.27;;;;;;;13.84;100.00;102111.06;5024451;28;20108;-83
2022/07/16 03:41:31;;;;;;;2.67;1.40;;;;;;;13.80;100.00;102122.72;5024422;28;20590;-83
2022/07/16 03:44:03;;;;;;;3.17;1.15;;;;;;;13.76;100.00;102123.75;5008424;28;20040;-84
2022/07/16 03:46:30;;;;;;;4.85;1.20;;;;;;;13.72;100.00;102123.03;5018811;28;20167;-83
2022/07/16 03:48:57;;;;;;;2.63;1.08;;;;;;;13.69;100.00;102124.00;5023766;28;20040;-84
2022/07/16 03:51:23;;;;;;;2.08;1.08;;;;;;;13.68;99.93;102127.59;5020465;28;20570;-80
2022/07/16 03:53:49;;;;;;;2.95;1.00;;;;;;;13.65;99.86;102125.06;4988341;28;20032;-83
2022/07/16 03:56:15;;;;;;;2.50;0.93;;;;;;;13.61;99.39;102138.53;5026858;28;21427;-81
2022/07/16 03:58:41;;;;;;;1.67;1.00;;;;;;;13.58;99.19;102131.53;5022569;28;20030;-84
2022/07/16 04:01:07;;;;;;;4.45;1.05;;;;;;;13.55;99.38;102145.81;5024755;28;20255;-84
2022/07/16 04:03:35;;;;;;;1.00;0.90;;;;;;;13.54;98.79;102145.88;5023870;28;20040;-81
2022/07/16 04:06:02;;;;;;;3.90;1.42;;;;;;;13.55;98.87;102142.28;5021453;28;20029;-85
2022/07/16 04:08:28;;;;;;;2.70;0.90;;;;;;;13.55;98.66;102152.94;5021055;28;20040;-84
2022/07/16 04:10:53;;;;;;;3.20;0.90;;;;;;;13.53;98.41;102154.78;5024629;28;20412;-81
2022/07/16 04:13:19;;;;;;;1.58;0.77;;;;;;;13.49;98.28;102155.81;5024380;28;20158;-81
2022/07/16 04:15:45;;;;;;;1.58;0.90;;;;;;;13.49;98.45;102156.69;5023837;28;20033;-84
2022/07/16 04:18:11;;;;;;;4.72;1.40;;;;;;;13.48;97.99;102156.75;5024392;28;20088;-84
2022/07/16 04:20:37;;;;;;;2.08;0.90;;;;;;;13.46;97.74;102158.59;5034013;28;20041;-83
2022/07/16 04:23:02;;;;;;;3.38;1.10;;;;;;;13.43;97.83;102156.88;5003142;28;20041;-80
2022/07/16 04:25:28;;;;;;;1.85;0.80;;;;;;;13.44;97.46;102159.50;5025349;28;20037;-81
2022/07/16 04:27:54;;;;;;;2.90;1.00;;;;;;;13.43;97.45;102157.75;5023053;28;20041;-82
2022/07/16 04:30:20;;;;;;;1.05;0.75;;;;;;;13.43;97.25;102165.75;5024033;28;20047;-85
2022/07/16 04:32:45;;;;;;;0.80;0.80;;;;;;;13.44;97.09;102161.28;5022639;28;20095;-83
2022/07/16 04:35:12;;;;;;;3.05;1.05;;;;;;;13.44;96.80;102164.81;5022455;28;20049;-83
2022/07/16 04:37:38;;;;;;;2.38;0.90;;;;;;;13.44;96.45;102167.47;5021655;28;20640;-84
2022/07/16 04:40:05;;;;;;;3.78;1.00;;;;;;;13.46;96.49;102169.25;5024488;28;20037;-86
2022/07/16 04:42:31;;;;;;;1.65;0.82;;;;;;;13.44;96.37;102178.13;5025364;28;20210;-87
2022/07/16 04:44:56;;;;;;;4.43;1.05;;;;;;;13.46;96.00;102174.56;5021393;28;20080;-85
2022/07/16 04:47:22;;;;;;;2.92;0.80;;;;;;;13.46;96.00;102180.75;5024354;28;20126;-86
2022/07/16 04:49:47;;;;;;;1.85;0.85;;;;;;;13.48;95.79;102184.22;5022806;28;20033;-85
2022/07/16 04:52:13;;;;;;;1.67;0.90;;;;;;;13.51;96.17;102186.75;5024959;28;20044;-86
2022/07/16 04:54:39;;;;;;;2.67;0.88;;;;;;;13.52;95.49;102188.50;5037579;28;20036;-78
2022/07/16 04:57:04;;;;;;;0.95;0.73;;;;;;;13.56;95.76;102194.56;5022906;28;20055;-82
2022/07/16 04:59:30;;;;;;;1.92;0.93;;;;;;;13.61;94.96;102199.75;5023156;28;20044;-81
2022/07/16 05:02:56;;;;;;;0.90;0.90;;;;;;;13.63;94.89;102198.78;5005721;28;20033;-84
2022/07/16 05:04:44;;;;;;;2.42;1.00;;;;;;;13.66;95.18;102198.63;5021675;28;20051;-80
2022/07/16 05:07:10;;;;;;;2.13;0.80;;;;;;;13.72;94.46;102208.19;5023497;28;20032;-81
2022/07/16 05:09:36;;;;;;;3.58;1.00;;;;;;;13.75;94.77;102208.09;5025180;28;20183;-84
2022/07/16 05:12:01;;;;;;;0.98;0.73;;;;;;;13.80;94.42;102207.91;5008399;28;20045;-81
2022/07/16 05:14:27;;;;;;;1.73;0.80;;;;;;;13.84;94.04;102212.19;5008318;28;20032;-80
2022/07/16 05:16:54;;;;;;;5.90;0.93;;;;;;;13.91;93.86;102212.81;5026255;28;20062;-80
2022/07/16 05:19:20;;;;;;;1.85;0.70;;;;;;;13.96;93.92;102211.72;5023936;28;20505;-81
2022/07/16 05:21:45;;;;;;;1.33;0.73;;;;;;;14.04;93.44;102218.53;5018610;28;20049;-80
2022/07/16 05:24:11;;;;;;;3.80;0.70;;;;;;;14.11;93.23;102220.06;5020988;28;20076;-80
2022/07/16 05:26:37;;;;;;;2.45;0.80;;;;;;;14.19;93.09;102225.06;5006736;28;20044;-78
2022/07/16 05:29:03;;;;;;;3.25;1.00;;;;;;;14.28;92.69;102222.06;5012675;28;20319;-80
2022/07/16 05:31:28;;;;;;;3.03;0.98;;;;;;;14.39;92.60;102219.81;5022754;28;20144;-80
2022/07/16 05:33:54;;;;;;;2.15;0.70;;;;;;;14.49;92.02;102220.34;5019994;28;20028;-79
2022/07/16 05:36:19;;;;;;;2.78;0.68;;;;;;;14.62;91.87;102230.50;5024337;28;20037;-77
2022/07/16 05:38:45;;;;;;;1.52;0.80;;;;;;;14.73;91.73;102217.63;5025197;28;20112;-82
2022/07/16 05:41:10;;;;;;;2.38;0.80;;;;;;;14.79;90.57;102221.84;5022733;28;20033;-80
2022/07/16 05:43:36;;;;;;;1.95;0.80;;;;;;;14.84;91.02;102214.53;5017731;28;20197;-80
2022/07/16 05:46:02;;;;;;;2.45;0.65;;;;;;;14.94;90.89;102236.34;5018576;28;20041;-82
2022/07/16 05:48:28;;;;;;;4.45;0.73;;;;;;;15.02;90.12;102222.66;5024905;28;21595;-83
2022/07/16 05:50:54;;;;;;;4.00;0.85;;;;;;;15.12;90.03;102220.47;5024017;28;20056;-78
2022/07/16 05:53:20;;;;;;;1.13;0.70;;;;;;;15.22;89.54;102227.16;5026043;28;20069;-79
2022/07/16 05:55:46;;;;;;;3.47;0.80;;;;;;;15.33;88.66;102232.91;5019345;28;20505;-79
2022/07/16 05:58:12;;;;;;;2.80;0.80;;;;;;;15.47;88.59;102237.63;5024864;28;20034;-80
2022/07/16 06:00:37;;;;;;;0.52;0.52;;;;;;;15.64;87.25;102236.03;5025557;28;20442;-80
2022/07/16 06:03:03;;;;;;;2.05;0.60;;;;;;;15.81;86.03;102229.03;5025433;28;20042;-79
2022/07/16 06:05:31;;;;;;;0.60;0.60;;;;;;;15.99;84.73;102235.38;5024986;28;20067;-81
2022/07/16 06:07:56;;;;;;;1.77;0.75;;;;;;;16.19;82.70;102244.25;5025658;28;20556;-81
2022/07/16 06:10:22;;;;;;;1.65;0.50;;;;;;;16.24;82.55;102240.41;5025426;28;20034;-84
2022/07/16 06:12:51;;;;;;;1.63;0.70;;;;;;;16.19;81.04;102241.59;5023854;28;20056;-83
2022/07/16 06:15:17;;;;;;;4.22;0.70;;;;;;;16.09;82.72;102250.03;5025344;28;20047;-78
2022/07/16 06:17:42;;;;;;;1.38;0.63;;;;;;;16.02;83.02;102253.94;5026029;28;20037;-79
2022/07/16 06:20:09;;;;;;;0.47;0.40;;;;;;;15.88;82.72;102250.06;5027331;28;20036;-80
2022/07/16 06:22:35;;;;;;;1.30;0.55;;;;;;;15.79;82.29;102266.47;5025450;28;20033;-82
2022/07/16 06:25:02;;;;;;;1.17;0.60;;;;;;;15.65;82.55;102259.13;5006791;28;21417;-79
2022/07/16 06:27:28;;;;;;;1.42;0.60;;;;;;;15.59;83.14;102265.56;5018844;28;20498;-81
2022/07/16 06:29:54;;;;;;;2.20;0.70;;;;;;;15.56;83.90;102276.41;5025681;28;20049;-80
2022/07/16 06:32:19;;;;;;;0.68;0.60;;;;;;;15.49;83.16;102274.94;5002461;28;20056;-82
2022/07/16 06:34:45;;;;;;;1.63;0.77;;;;;;;15.51;83.58;102273.06;5024846;28;20036;-81
2022/07/16 06:37:10;;;;;;;1.50;0.63;;;;;;;15.53;83.67;102278.34;5025267;28;20036;-79
2022/07/16 06:39:38;;;;;;;1.48;0.63;;;;;;;15.48;82.45;102283.88;5023498;28;20087;-80
2022/07/16 06:42:04;;;;;;;2.15;0.50;;;;;;;15.46;82.18;102297.28;5023602;28;20484;-79
2022/07/16 06:44:29;;;;;;;1.70;0.73;;;;;;;15.44;82.04;102290.28;5024912;28;20110;-78
2022/07/16 06:46:55;;;;;;;3.42;0.70;;;;;;;15.47;81.60;102293.66;5023814;28;20029;-80
2022/07/16 06:49:21;;;;;;;2.70;0.70;;;;;;;15.57;81.49;102296.81;5024696;28;20045;-77
2022/07/16 06:51:46;;;;;;;2.47;0.90;;;;;;;15.74;80.30;102303.19;5025298;28;20032;-78
2022/07/16 06:54:12;;;;;;;2.00;0.60;;;;;;;15.99;77.79;102299.47;5024670;28;20214;-78
2022/07/16 06:56:37;;;;;;;1.80;0.68;;;;;;;16.19;78.54;102308.38;5025075;28;20738;-77
2022/07/16 06:59:03;;;;;;;2.88;0.68;;;;;;;16.42;76.32;102313.53;5025500;28;20492;-77
2022/07/16 07:01:29;;;;;;;2.25;0.50;;;;;;;16.67;76.03;102314.16;5006593;28;20488;-77
2022/07/16 07:03:54;;;;;;;3.25;0.70;;;;;;;16.89;75.16;102310.44;5024899;28;20046;-78
2022/07/16 07:06:20;;;;;;;1.65;0.50;;;;;;;17.12;73.32;102317.38;5024270;28;20029;-79
2022/07/16 07:08:46;;;;;;;1.13;0.40;;;;;;;17.23;71.59;102306.97;5024296;28;20040;-78
2022/07/16 07:11:11;;;;;;;0.70;0.50;;;;;;;17.27;70.69;102314.84;5024478;28;20041;-78
2022/07/16 07:13:38;;;;;;;1.17;0.40;;;;;;;17.30;71.50;102317.38;5023936;28;20080;-76
2022/07/16 07:16:04;;;;;;;3.50;0.70;;;;;;;17.19;68.70;102324.13;5006785;28;20033;-77
2022/07/16 07:18:30;;;;;;;1.90;0.40;;;;;;;17.15;68.23;102329.72;4985029;28;21789;-78
2022/07/16 07:20:56;;;;;;;1.10;0.52;;;;;;;17.23;67.06;102332.88;5024751;28;20045;-76
2022/07/16 07:23:25;;;;;;;1.55;0.50;;;;;;;17.27;64.71;102342.47;5027181;28;20471;-80
2022/07/16 07:25:51;;;;;;;0.75;0.50;;;;;;;17.30;67.46;102341.44;5026055;28;20059;-79
2022/07/16 07:28:16;;;;;;;1.92;0.98;;;;;;;17.44;66.71;102338.94;5027150;28;20506;-77
2022/07/16 07:30:44;;;;;;;1.90;0.80;;;;;;;17.48;65.91;102332.50;5028213;28;20524;-81
2022/07/16 07:33:10;;;;;;;1.63;0.40;;;;;;;17.65;66.57;102338.78;5026697;28;20044;-80
2022/07/16 07:35:36;;;;;;;0.98;0.80;;;;;;;17.92;63.95;102338.28;5022196;28;20112;-77
2022/07/16 07:38:01;;;;;;;2.45;0.43;;;;;;;18.00;65.01;102338.75;5027820;28;20125;-77
2022/07/16 07:40:27;;;;;;;0.40;0.40;;;;;;;17.95;63.28;102343.47;5027975;28;20033;-77
2022/07/16 07:42:54;;;;;;;3.72;0.70;;;;;;;17.98;63.03;102340.63;5027999;28;20064;-78
2022/07/16 07:45:20;;;;;;;1.38;0.43;;;;;;;17.91;64.45;102347.25;5027495;28;20041;-77
2022/07/16 07:47:46;;;;;;;0.75;0.50;;;;;;;17.90;65.59;102356.25;5009636;28;20043;-78
2022/07/16 07:50:11;;;;;;;2.22;0.70;;;;;;;17.86;65.27;102354.69;5028638;28;20037;-77
2022/07/16 07:52:37;;;;;;;0.77;0.60;;;;;;;17.74;65.39;102359.75;5027567;28;20037;-75
2022/07/16 07:55:03;;;;;;;1.27;0.60;;;;;;;17.57;65.13;102349.91;5027990;28;20035;-76
2022/07/16 07:57:28;;;;;;;3.20;0.60;;;;;;;17.32;65.77;102361.84;5027782;28;20051;-78
2022/07/16 07:59:54;;;;;;;2.20;0.73;;;;;;;17.11;66.19;102358.44;5027353;28;20467;-76
2022/07/16 08:02:20;;;;;;;1.10;0.60;;;;;;;17.03;66.25;102361.50;5026112;28;20060;-77
2022/07/16 08:04:46;;;;;;;1.08;0.50;;;;;;;16.96;66.72;102371.56;5027355;28;21755;-76
2022/07/16 08:07:11;;;;;;;1.45;0.55;;;;;;;17.07;66.19;102370.22;5025935;28;20960;-78
2022/07/16 08:09:37;;;;;;;1.55;0.47;;;;;;;17.19;66.53;102369.63;5027747;28;20120;-77
2022/07/16 08:12:03;;;;;;;1.75;0.60;;;;;;;17.27;66.22;102377.25;5037991;28;20498;-77
2022/07/16 08:14:29;;;;;;;2.13;0.75;;;;;;;17.22;66.32;102382.84;5026334;28;20045;-77
2022/07/16 08:16:58;;;;;;;0.70;0.47;;;;;;;17.17;65.53;102389.38;5004344;28;20505;-78
2022/07/16 08:19:24;;;;;;;0.63;0.57;;;;;;;17.08;64.14;102385.34;5025816;28;20035;-80
2022/07/16 08:21:50;;;;;;;1.58;0.85;;;;;;;17.16;63.81;102383.16;5020931;28;21476;-77
2022/07/16 08:27:02;;;;;;;1.27;0.60;;;;;;;17.84;64.19;102383.34;5027194;28;20040;-80
2022/07/16 08:29:27;;;;;;;1.35;0.45;;;;;;;18.16;63.16;102373.66;5025430;28;20045;-77
2022/07/16 08:31:53;;;;;;;2.53;0.60;;;;;;;18.47;62.73;102381.88;5027471;28;20383;-77
2022/07/16 08:34:22;;;;;;;1.10;0.50;;;;;;;18.56;60.68;102380.47;5026839;28;20037;-78
2022/07/16 08:36:49;;;;;;;0.65;0.38;;;;;;;18.68;60.47;102382.47;5026990;28;20033;-78
2022/07/16 08:39:15;;;;;;;0.77;0.40;;;;;;;18.62;61.44;102392.69;5026861;28;20480;-79
2022/07/16 08:41:42;;;;;;;2.42;0.60;;;;;;;18.46;60.63;102391.72;5026739;28;20091;-81
2022/07/16 08:44:08;;;;;;;1.60;0.50;;;;;;;18.37;61.48;102394.03;5026399;28;20025;-78
2022/07/16 08:46:34;;;;;;;0.98;0.50;;;;;;;18.63;62.27;102397.09;4988381;28;20546;-78
2022/07/16 08:49:00;;;;;;;1.00;0.60;;;;;;;18.79;60.76;102392.59;5026229;28;20038;-77
2022/07/16 08:51:33;;;;;;;2.58;0.43;;;;;;;18.72;59.41;102401.94;5027143;28;20612;-79
2022/07/16 08:54:05;;;;;;;0.57;0.50;;;;;;;18.68;60.19;102403.09;5026406;28;20631;-81
2022/07/16 08:56:31;;;;;;;1.55;0.50;;;;;;;18.80;60.10;102409.56;5026340;28;20024;-79
2022/07/16 08:58:57;;;;;;;0.65;0.30;;;;;;;18.86;61.13;102422.66;5024495;28;20789;-76
2022/07/16 09:01:29;;;;;;;1.85;0.60;;;;;;;18.86;61.15;102423.50;5021190;28;20037;-78
2022/07/16 09:03:58;;;;;;;2.05;0.70;;;;;;;19.09;61.30;102426.75;5026305;28;20037;-79
2022/07/16 09:06:25;;;;;;;0.77;0.50;;;;;;;19.35;61.56;102421.69;5026185;28;20056;-79
2022/07/16 09:08:52;;;;;;;1.38;0.47;;;;;;;19.43;60.87;102421.25;5026366;28;20033;-82
2022/07/16 09:11:46;;;;;;;1.38;0.50;;;;;;;19.50;60.80;102435.19;5025422;28;20049;-78
2022/07/16 09:14:16;;;;;;;2.08;0.60;;;;;;;19.38;59.48;102434.94;5026097;28;20251;-80
2022/07/16 09:16:50;;;;;;;1.90;0.50;;;;;;;19.28;61.01;102439.09;5004489;28;20037;-78
2022/07/16 09:19:21;;;;;;;3.30;0.50;;;;;;;19.13;61.13;102452.44;5009091;28;20485;-82
2022/07/16 09:22:13;;;;;;;0.85;0.50;;;;;;;19.05;61.43;102435.91;5025116;28;20830;-77
2022/07/16 09:24:42;;;;;;;1.00;0.57;;;;;;;19.02;62.01;102449.53;5003503;28;20033;-78
2022/07/16 09:27:11;;;;;;;1.35;0.60;;;;;;;18.98;61.27;102445.25;5026702;28;20033;-81
2022/07/16 09:29:50;;;;;;;1.52;0.50;;;;;;;18.78;61.43;102449.88;5024609;28;20041;-80
2022/07/16 09:32:39;;;;;;;1.88;0.70;;;;;;;18.70;61.69;102447.63;5024566;28;20036;-79
2022/07/16 09:35:10;;;;;;;1.55;0.43;;;;;;;18.65;62.45;102454.19;5026968;28;20036;-77
2022/07/16 09:37:55;;;;;;;2.70;0.70;;;;;;;18.93;63.19;102450.00;5025917;28;20040;-78
2022/07/16 09:40:43;;;;;;;1.48;0.40;;;;;;;19.03;60.71;102451.25;5019138;28;20064;-80
2022/07/16 09:43:15;;;;;;;1.58;0.50;;;;;;;18.92;61.17;102450.94;5019884;28;20051;-80
2022/07/16 09:45:49;;;;;;;1.15;0.50;;;;;;;18.79;61.96;102465.03;5025211;28;20033;-82
2022/07/16 09:48:22;;;;;;;1.17;0.38;;;;;;;18.62;62.22;102474.00;5007749;28;20037;-79
2022/07/16 09:50:48;;;;;;;;;;;;;;;18.52;63.19;102470.94;5025966;28;20059;-78
2022/07/16 09:53:21;;;;;;;1.38;0.50;;;;;;;18.72;63.83;102477.94;5025395;28;20335;-80
2022/07/16 09:56:17;;;;;;;0.68;0.60;;;;;;;19.09;63.05;102471.50;5025756;28;20029;-80
2022/07/16 09:58:51;;;;;;;1.45;0.60;;;;;;;19.27;61.51;102473.16;5024760;28;20048;-76
2022/07/16 10:01:18;;;;;;;1.75;0.60;;;;;;;19.45;61.43;102470.34;5025404;28;20388;-78
2022/07/16 10:03:45;;;;;;;1.75;0.60;;;;;;;19.58;60.62;102475.91;5007539;28;20079;-79
2022/07/16 10:06:11;;;;;;;0.73;0.40;;;;;;;19.56;59.51;102477.81;5025311;28;20060;-79
2022/07/16 10:08:37;;;;;;;1.33;0.70;;;;;;;19.32;59.89;102480.06;5025627;28;20132;-80
2022/07/16 10:11:04;;;;;;;1.75;0.80;;;;;;;19.21;60.63;102494.09;5025745;28;20090;-79
2022/07/16 10:13:31;;;;;;;1.15;0.50;;;;;;;19.36;60.42;102479.81;5007392;28;20032;-77
2022/07/16 10:15:57;;;;;;;1.98;0.80;;;;;;;19.56;59.88;102475.13;5019076;28;20111;-74
2022/07/16 10:18:40;;;;;;;2.00;0.50;;;;;;;19.49;59.51;102490.72;5025385;28;20029;-81
2022/07/16 10:21:08;;;;;;;2.22;0.45;;;;;;;19.29;59.65;102486.50;5024832;28;20136;-77
2022/07/16 10:23:34;;;;;;;3.25;0.73;;;;;;;19.12;59.87;102490.97;5025331;28;20048;-78
2022/07/16 10:26:04;;;;;;;1.13;0.60;;;;;;;19.20;60.31;102495.06;5026155;28;20033;-79
2022/07/16 10:28:36;;;;;;;0.75;0.65;;;;;;;19.23;59.42;102497.59;5024984;28;20041;-78
2022/07/16 10:31:21;;;;;;;;;;;;;;;19.27;58.41;102504.50;5019384;28;20125;-78
2022/07/16 10:33:46;;;;;;;2.60;0.43;;;;;;;19.47;58.81;102515.91;5025321;28;19966;-82
2022/07/16 10:36:12;;;;;;;1.55;0.70;;;;;;;19.23;56.85;102503.81;5023586;28;21423;-82
2022/07/16 10:39:05;;;;;;;2.08;0.63;;;;;;;18.96;57.44;102508.88;5023661;28;20038;-81
2022/07/16 10:41:30;;;;;;;0.63;0.63;;;;;;;18.95;58.20;102504.47;5007569;28;20483;-80
2022/07/16 10:44:09;;;;;;;0.85;0.50;;;;;;;18.94;58.94;102516.13;5024995;28;20111;-77
2022/07/16 10:46:50;;;;;;;0.88;0.40;;;;;;;18.96;57.59;102509.72;5025091;28;20072;-79
2022/07/16 10:49:16;;;;;;;1.55;0.70;;;;;;;19.05;58.46;102508.38;5023963;28;20037;-80
2022/07/16 10:52:05;;;;;;;2.72;0.70;;;;;;;19.19;57.45;102513.00;5023176;28;20029;-82
2022/07/16 10:54:33;;;;;;;0.82;0.60;;;;;;;19.11;57.50;102515.22;4985962;28;20033;-77
2022/07/16 10:57:01;;;;;;;1.98;0.68;;;;;;;18.94;57.31;102510.75;5019846;28;20555;-77
2022/07/16 10:59:30;;;;;;;2.13;0.70;;;;;;;18.85;56.86;102526.41;5028672;28;21428;-79
2022/07/16 11:01:58;;;;;;;0.85;0.60;;;;;;;18.95;57.57;102528.59;5028400;28;21091;-79
2022/07/16 11:04:29;;;;;;;1.48;0.50;;;;;;;19.04;57.37;102528.13;5028636;28;20037;-78
2022/07/16 11:06:55;;;;;;;1.45;0.50;;;;;;;19.13;56.96;102522.22;5028356;28;20487;-79
2022/07/16 11:09:29;;;;;;;1.48;0.50;;;;;;;19.05;55.73;102535.22;5028444;28;21301;-77
2022/07/16 11:11:56;;;;;;;0.70;0.40;;;;;;;18.99;56.38;102539.09;5005509;28;20110;-78
2022/07/16 11:14:28;;;;;;;2.13;0.52;;;;;;;19.00;55.58;102547.97;5026921;28;20396;-80
2022/07/16 11:16:54;;;;;;;;;;;;;;;18.97;55.25;102543.66;5028624;28;20395;-81
2022/07/16 11:19:20;;;;;;;2.17;0.60;;;;;;;18.91;55.56;102553.88;5010513;28;19928;-79
2022/07/16 11:21:53;;;;;;;1.00;0.68;;;;;;;18.96;56.33;102551.81;5027770;28;20078;-78
2022/07/16 11:24:20;;;;;;;2.42;0.70;;;;;;;19.16;56.15;102548.03;5027322;28;20033;-78
2022/07/16 11:26:48;;;;;;;2.55;0.60;;;;;;;19.22;55.40;102560.25;5022508;28;22204;-78
2022/07/16 11:29:13;;;;;;;0.93;0.40;;;;;;;19.02;55.18;102554.19;5028115;28;20037;-79
2022/07/16 11:31:39;;;;;;;0.75;0.57;;;;;;;19.10;55.87;102548.38;5028196;28;20048;-79